sensor_id;sensor_type;location;lat;lon;timestamp;pressure;altitude;pressure_sealevel;temperature;humidity
50774;BME280;36745;48.544;8.918;2023-03-03T00:03:20;97513.50;;;0.67;82.99
50774;BME280;36745;48.544;8.918;2023-03-03T00:06:43;97518.81;;;0.60;84.09
50774;BME280;36745;48.544;8.918;2023-03-03T00:10:03;97517.78;;;0.68;84.27
50774;BME280;36745;48.544;8.918;2023-03-03T00:13:25;97522.06;;;0.69;83.92
50774;BME280;36745;48.544;8.918;2023-03-03T00:16:45;97520.50;;;0.68;83.90
50774;BME280;36745;48.544;8.918;2023-03-03T00:20:35;97521.38;;;0.79;83.60
50774;BME280;36745;48.544;8.918;2023-03-03T00:27:34;97519.09;;;0.81;83.56
50774;BME280;36745;48.544;8.918;2023-03-03T00:31:00;97522.97;;;0.80;84.13
50774;BME280;36745;48.544;8.918;2023-03-03T00:34:26;97523.69;;;0.77;84.10
50774;BME280;36745;48.544;8.918;2023-03-03T00:37:55;97523.31;;;0.78;84.29
50774;BME280;36745;48.544;8.918;2023-03-03T00:41:26;97528.38;;;0.80;84.46
50774;BME280;36745;48.544;8.918;2023-03-03T00:44:57;97528.75;;;0.78;84.10
50774;BME280;36745;48.544;8.918;2023-03-03T00:48:26;97522.53;;;0.78;84.22
50774;BME280;36745;48.544;8.918;2023-03-03T00:51:46;97519.81;;;0.78;84.72
50774;BME280;36745;48.544;8.918;2023-03-03T00:55:06;97525.25;;;0.78;84.55
50774;BME280;36745;48.544;8.918;2023-03-03T00:58:26;97522.97;;;0.83;84.74
50774;BME280;36745;48.544;8.918;2023-03-03T01:01:46;97526.06;;;0.82;84.18
50774;BME280;36745;48.544;8.918;2023-03-03T01:05:06;97526.44;;;0.80;84.58
50774;BME280;36745;48.544;8.918;2023-03-03T01:08:28;97529.28;;;0.91;84.97
50774;BME280;36745;48.544;8.918;2023-03-03T01:11:49;97525.78;;;0.91;84.74
50774;BME280;36745;48.544;8.918;2023-03-03T01:15:09;97521.88;;;0.88;84.90
50774;BME280;36745;48.544;8.918;2023-03-03T01:18:29;97522.66;;;0.89;84.74
50774;BME280;36745;48.544;8.918;2023-03-03T01:21:49;97526.16;;;0.89;84.55
50774;BME280;36745;48.544;8.918;2023-03-03T01:25:09;97523.75;;;0.80;83.90
50774;BME280;36745;48.544;8.918;2023-03-03T01:28:28;97521.31;;;0.72;84.52
50774;BME280;36745;48.544;8.918;2023-03-03T01:31:48;97529.78;;;0.67;84.17
50774;BME280;36745;48.544;8.918;2023-03-03T01:35:08;97526.56;;;0.58;84.63
50774;BME280;36745;48.544;8.918;2023-03-03T01:38:28;97525.34;;;0.52;84.72
50774;BME280;36745;48.544;8.918;2023-03-03T01:41:48;97523.38;;;0.49;84.74
50774;BME280;36745;48.544;8.918;2023-03-03T01:48:42;97513.56;;;0.40;84.87
50774;BME280;36745;48.544;8.918;2023-03-03T01:52:11;97509.84;;;0.22;85.02
50774;BME280;36745;48.544;8.918;2023-03-03T01:55:36;97520.69;;;0.22;85.45
50774;BME280;36745;48.544;8.918;2023-03-03T01:59:02;97512.22;;;0.27;85.31
50774;BME280;36745;48.544;8.918;2023-03-03T02:02:23;97511.38;;;0.20;84.53
50774;BME280;36745;48.544;8.918;2023-03-03T02:05:44;97511.25;;;0.09;84.75
50774;BME280;36745;48.544;8.918;2023-03-03T02:09:10;97506.50;;;0.03;84.37
50774;BME280;36745;48.544;8.918;2023-03-03T02:15:59;97502.28;;;-0.21;84.95
50774;BME280;36745;48.544;8.918;2023-03-03T02:19:59;97499.94;;;-0.23;85.02
50774;BME280;36745;48.544;8.918;2023-03-03T02:23:32;97497.13;;;-0.30;85.18
50774;BME280;36745;48.544;8.918;2023-03-03T02:26:53;97502.59;;;-0.26;85.60
50774;BME280;36745;48.544;8.918;2023-03-03T02:30:17;97499.47;;;-0.28;84.72
50774;BME280;36745;48.544;8.918;2023-03-03T02:33:41;97492.44;;;-0.33;85.62
50774;BME280;36745;48.544;8.918;2023-03-03T02:37:02;97491.97;;;-0.38;84.99
50774;BME280;36745;48.544;8.918;2023-03-03T02:40:23;97488.66;;;-0.28;85.82
50774;BME280;36745;48.544;8.918;2023-03-03T02:44:04;97484.88;;;-0.47;85.37
50774;BME280;36745;48.544;8.918;2023-03-03T02:47:25;97482.53;;;-0.48;85.66
50774;BME280;36745;48.544;8.918;2023-03-03T02:50:44;97487.91;;;-0.52;85.84
50774;BME280;36745;48.544;8.918;2023-03-03T02:54:05;97489.34;;;-0.58;85.59
50774;BME280;36745;48.544;8.918;2023-03-03T02:57:25;97493.09;;;-0.66;85.52
50774;BME280;36745;48.544;8.918;2023-03-03T03:00:45;97492.44;;;-0.82;85.72
50774;BME280;36745;48.544;8.918;2023-03-03T03:04:11;97493.72;;;-0.76;85.76
50774;BME280;36745;48.544;8.918;2023-03-03T03:07:30;97498.25;;;-0.80;85.29
50774;BME280;36745;48.544;8.918;2023-03-03T03:10:53;97496.41;;;-0.76;85.30
50774;BME280;36745;48.544;8.918;2023-03-03T03:14:13;97493.72;;;-0.76;85.34
50774;BME280;36745;48.544;8.918;2023-03-03T03:17:33;97502.00;;;-0.88;85.77
50774;BME280;36745;48.544;8.918;2023-03-03T03:20:53;97496.50;;;-0.92;85.91
50774;BME280;36745;48.544;8.918;2023-03-03T03:24:13;97499.72;;;-0.86;86.49
50774;BME280;36745;48.544;8.918;2023-03-03T03:27:33;97500.63;;;-0.78;86.70
50774;BME280;36745;48.544;8.918;2023-03-03T03:30:52;97500.44;;;-0.66;87.08
50774;BME280;36745;48.544;8.918;2023-03-03T03:34:12;97507.22;;;-0.53;86.84
50774;BME280;36745;48.544;8.918;2023-03-03T03:37:32;97493.34;;;-0.48;87.25
50774;BME280;36745;48.544;8.918;2023-03-03T03:40:53;97497.25;;;-0.49;87.03
50774;BME280;36745;48.544;8.918;2023-03-03T03:44:13;97508.16;;;-0.42;87.06
50774;BME280;36745;48.544;8.918;2023-03-03T03:47:33;97498.53;;;-0.39;87.35
50774;BME280;36745;48.544;8.918;2023-03-03T03:50:52;97506.03;;;-0.29;87.68
50774;BME280;36745;48.544;8.918;2023-03-03T03:54:13;97503.84;;;-0.20;87.63
50774;BME280;36745;48.544;8.918;2023-03-03T03:57:32;97506.97;;;-0.18;87.45
50774;BME280;36745;48.544;8.918;2023-03-03T04:00:52;97510.88;;;-0.16;87.17
50774;BME280;36745;48.544;8.918;2023-03-03T04:04:12;97511.56;;;-0.22;87.42
50774;BME280;36745;48.544;8.918;2023-03-03T04:07:32;97516.69;;;-0.17;87.83
50774;BME280;36745;48.544;8.918;2023-03-03T04:10:52;97506.34;;;-0.08;88.29
50774;BME280;36745;48.544;8.918;2023-03-03T04:14:11;97499.56;;;0.05;88.19
50774;BME280;36745;48.544;8.918;2023-03-03T04:17:31;97504.25;;;0.08;87.97
50774;BME280;36745;48.544;8.918;2023-03-03T04:20:52;97501.97;;;0.10;87.76
50774;BME280;36745;48.544;8.918;2023-03-03T04:24:13;97503.94;;;0.13;88.32
50774;BME280;36745;48.544;8.918;2023-03-03T04:27:34;97500.53;;;0.20;88.31
50774;BME280;36745;48.544;8.918;2023-03-03T04:30:54;97507.41;;;0.14;88.67
50774;BME280;36745;48.544;8.918;2023-03-03T04:34:15;97513.72;;;0.21;88.30
50774;BME280;36745;48.544;8.918;2023-03-03T04:37:35;97513.75;;;0.25;88.28
50774;BME280;36745;48.544;8.918;2023-03-03T04:40:56;97513.81;;;0.28;88.66
50774;BME280;36745;48.544;8.918;2023-03-03T04:44:16;97518.91;;;0.33;88.62
50774;BME280;36745;48.544;8.918;2023-03-03T04:47:35;97513.88;;;0.32;88.54
50774;BME280;36745;48.544;8.918;2023-03-03T04:50:55;97513.94;;;0.39;89.00
50774;BME280;36745;48.544;8.918;2023-03-03T04:54:15;97514.47;;;0.52;88.60
50774;BME280;36745;48.544;8.918;2023-03-03T04:57:35;97518.75;;;0.53;88.47
50774;BME280;36745;48.544;8.918;2023-03-03T05:00:56;97522.59;;;0.48;88.49
50774;BME280;36745;48.544;8.918;2023-03-03T05:04:16;97517.09;;;0.45;88.44
50774;BME280;36745;48.544;8.918;2023-03-03T05:07:36;97517.19;;;0.52;89.25
50774;BME280;36745;48.544;8.918;2023-03-03T05:10:55;97525.81;;;0.61;88.86
50774;BME280;36745;48.544;8.918;2023-03-03T05:14:17;97519.69;;;0.64;88.91
50774;BME280;36745;48.544;8.918;2023-03-03T05:17:37;97528.22;;;0.66;89.54
50774;BME280;36745;48.544;8.918;2023-03-03T05:20:57;97528.22;;;0.66;88.41
50774;BME280;36745;48.544;8.918;2023-03-03T05:24:17;97531.31;;;0.64;88.67
50774;BME280;36745;48.544;8.918;2023-03-03T05:27:37;97540.25;;;0.68;88.47
50774;BME280;36745;48.544;8.918;2023-03-03T05:30:56;97541.03;;;0.69;88.17
50774;BME280;36745;48.544;8.918;2023-03-03T05:34:16;97540.63;;;0.67;88.79
50774;BME280;36745;48.544;8.918;2023-03-03T05:37:36;97542.09;;;0.61;88.90
50774;BME280;36745;48.544;8.918;2023-03-03T05:40:58;97545.72;;;0.72;89.78
50774;BME280;36745;48.544;8.918;2023-03-03T05:44:18;97545.81;;;0.79;89.33
50774;BME280;36745;48.544;8.918;2023-03-03T05:47:38;97548.53;;;0.79;89.47
50774;BME280;36745;48.544;8.918;2023-03-03T05:50:58;97553.63;;;0.84;89.42
50774;BME280;36745;48.544;8.918;2023-03-03T05:54:18;97554.09;;;0.93;89.06
50774;BME280;36745;48.544;8.918;2023-03-03T05:57:38;97550.16;;;0.87;88.53
50774;BME280;36745;48.544;8.918;2023-03-03T06:00:57;97562.56;;;0.88;89.41
50774;BME280;36745;48.544;8.918;2023-03-03T06:04:17;97558.72;;;0.89;88.71
50774;BME280;36745;48.544;8.918;2023-03-03T06:07:37;97550.25;;;0.94;89.73
50774;BME280;36745;48.544;8.918;2023-03-03T06:10:57;97558.84;;;1.00;88.62
50774;BME280;36745;48.544;8.918;2023-03-03T06:14:17;97561.19;;;1.01;88.70
50774;BME280;36745;48.544;8.918;2023-03-03T06:17:37;97568.91;;;0.99;88.72
50774;BME280;36745;48.544;8.918;2023-03-03T06:20:56;97567.28;;;0.91;88.89
50774;BME280;36745;48.544;8.918;2023-03-03T06:24:16;97572.03;;;1.01;89.30
50774;BME280;36745;48.544;8.918;2023-03-03T06:27:36;97578.38;;;1.12;88.86
50774;BME280;36745;48.544;8.918;2023-03-03T06:30:56;97576.00;;;1.07;89.10
50774;BME280;36745;48.544;8.918;2023-03-03T06:34:16;97580.63;;;1.07;88.35
50774;BME280;36745;48.544;8.918;2023-03-03T06:37:36;97586.13;;;1.14;88.58
50774;BME280;36745;48.544;8.918;2023-03-03T06:40:56;97586.19;;;1.17;88.44
50774;BME280;36745;48.544;8.918;2023-03-03T06:44:16;97585.09;;;1.25;87.77
50774;BME280;36745;48.544;8.918;2023-03-03T06:47:36;97594.78;;;1.26;88.14
50774;BME280;36745;48.544;8.918;2023-03-03T06:50:57;97599.88;;;1.32;88.02
50774;BME280;36745;48.544;8.918;2023-03-03T06:54:37;97599.34;;;1.15;88.53
50774;BME280;36745;48.544;8.918;2023-03-03T06:57:58;97611.78;;;1.20;88.66
50774;BME280;36745;48.544;8.918;2023-03-03T07:01:18;97618.06;;;1.24;89.30
50774;BME280;36745;48.544;8.918;2023-03-03T07:04:37;97611.91;;;1.31;88.81
50774;BME280;36745;48.544;8.918;2023-03-03T07:07:58;97615.03;;;1.33;88.90
50774;BME280;36745;48.544;8.918;2023-03-03T07:11:25;97621.22;;;1.30;89.01
50774;BME280;36745;48.544;8.918;2023-03-03T07:14:47;97625.97;;;1.40;89.19
50774;BME280;36745;48.544;8.918;2023-03-03T07:19:20;97626.03;;;1.47;89.33
50774;BME280;36745;48.544;8.918;2023-03-03T07:23:14;97621.44;;;1.51;89.13
50774;BME280;36745;48.544;8.918;2023-03-03T07:26:37;97626.88;;;1.51;88.75
50774;BME280;36745;48.544;8.918;2023-03-03T07:30:22;97636.22;;;1.57;88.74
50774;BME280;36745;48.544;8.918;2023-03-03T07:33:44;97640.63;;;1.68;89.06
50774;BME280;36745;48.544;8.918;2023-03-03T07:40:48;97641.22;;;1.92;88.78
50774;BME280;36745;48.544;8.918;2023-03-03T07:44:20;97645.97;;;2.05;88.19
50774;BME280;36745;48.544;8.918;2023-03-03T07:47:40;97637.47;;;2.07;88.07
50774;BME280;36745;48.544;8.918;2023-03-03T07:51:04;97648.38;;;2.10;88.33
50774;BME280;36745;48.544;8.918;2023-03-03T07:54:39;97648.13;;;2.30;87.77
50774;BME280;36745;48.544;8.918;2023-03-03T08:01:39;97661.75;;;2.33;87.61
50774;BME280;36745;48.544;8.918;2023-03-03T08:05:00;97641.56;;;2.38;87.62
50774;BME280;36745;48.544;8.918;2023-03-03T08:08:35;97646.31;;;2.48;87.82
50774;BME280;36745;48.544;8.918;2023-03-03T08:15:30;97640.09;;;2.51;87.18
50774;BME280;36745;48.544;8.918;2023-03-03T08:18:50;97644.75;;;2.47;87.54
50774;BME280;36745;48.544;8.918;2023-03-03T08:22:15;97639.75;;;2.60;87.69
50774;BME280;36745;48.544;8.918;2023-03-03T08:25:36;97647.28;;;2.80;87.96
50774;BME280;36745;48.544;8.918;2023-03-03T08:28:56;97650.06;;;2.94;87.27
50774;BME280;36745;48.544;8.918;2023-03-03T08:32:16;97651.66;;;3.03;86.98
50774;BME280;36745;48.544;8.918;2023-03-03T08:35:36;97647.41;;;3.09;87.07
50774;BME280;36745;48.544;8.918;2023-03-03T08:38:56;97647.44;;;3.12;87.22
50774;BME280;36745;48.544;8.918;2023-03-03T08:42:15;97656.03;;;3.18;86.44
50774;BME280;36745;48.544;8.918;2023-03-03T08:45:35;97646.66;;;3.12;86.84
50774;BME280;36745;48.544;8.918;2023-03-03T08:48:55;97652.94;;;3.30;87.49
50774;BME280;36745;48.544;8.918;2023-03-03T08:52:15;97661.50;;;3.32;87.34
50774;BME280;36745;48.544;8.918;2023-03-03T08:55:34;97656.53;;;3.59;87.16
50774;BME280;36745;48.544;8.918;2023-03-03T08:58:54;97654.59;;;3.73;86.83
50774;BME280;36745;48.544;8.918;2023-03-03T09:02:14;97650.72;;;3.78;85.77
50774;BME280;36745;48.544;8.918;2023-03-03T09:05:37;97655.44;;;3.92;86.10
50774;BME280;36745;48.544;8.918;2023-03-03T09:08:57;97659.72;;;4.07;85.61
50774;BME280;36745;48.544;8.918;2023-03-03T09:12:21;97652.72;;;4.20;84.78
50774;BME280;36745;48.544;8.918;2023-03-03T09:15:41;97651.13;;;4.47;84.62
50774;BME280;36745;48.544;8.918;2023-03-03T09:19:15;97664.00;;;4.40;82.24
50774;BME280;36745;48.544;8.918;2023-03-03T09:22:37;97657.38;;;4.51;81.03
50774;BME280;36745;48.544;8.918;2023-03-03T09:26:14;97659.34;;;4.47;81.24
50774;BME280;36745;48.544;8.918;2023-03-03T09:29:39;97667.50;;;4.54;80.07
50774;BME280;36745;48.544;8.918;2023-03-03T09:33:01;97662.41;;;4.71;80.18
50774;BME280;36745;48.544;8.918;2023-03-03T09:36:36;97658.88;;;4.84;80.36
50774;BME280;36745;48.544;8.918;2023-03-03T09:39:57;97668.56;;;5.06;80.62
50774;BME280;36745;48.544;8.918;2023-03-03T09:51:03;97665.72;;;5.38;80.21
50774;BME280;36745;48.544;8.918;2023-03-03T09:54:36;97662.22;;;5.34;78.49
50774;BME280;36745;48.544;8.918;2023-03-03T10:17:16;97673.28;;;5.93;75.33
50774;BME280;36745;48.544;8.918;2023-03-03T10:40:00;97676.44;;;6.84;72.67
50774;BME280;36745;48.544;8.918;2023-03-03T10:58:45;97672.84;;;7.25;71.77
50774;BME280;36745;48.544;8.918;2023-03-03T11:02:30;97667.66;;;7.34;70.22
50774;BME280;36745;48.544;8.918;2023-03-03T11:06:00;97666.56;;;7.58;70.56
50774;BME280;36745;48.544;8.918;2023-03-03T11:16:47;97658.44;;;8.31;67.88
50774;BME280;36745;48.544;8.918;2023-03-03T11:23:49;97646.56;;;9.63;69.27
50774;BME280;36745;48.544;8.918;2023-03-03T11:44:49;97622.22;;;10.63;61.58
50774;BME280;36745;48.544;8.918;2023-03-03T11:48:16;97619.19;;;11.02;62.29
50774;BME280;36745;48.544;8.918;2023-03-03T11:58:40;97605.19;;;10.51;57.90
50774;BME280;36745;48.544;8.918;2023-03-03T12:09:41;97599.66;;;10.51;54.62
50774;BME280;36745;48.544;8.918;2023-03-03T12:14:06;97590.75;;;11.18;55.47
50774;BME280;36745;48.544;8.918;2023-03-03T12:24:40;97591.66;;;11.94;50.87
50774;BME280;36745;48.544;8.918;2023-03-03T12:28:10;97597.94;;;11.95;52.31
50774;BME280;36745;48.544;8.918;2023-03-03T12:35:28;97587.94;;;13.17;49.91
50774;BME280;36745;48.544;8.918;2023-03-03T12:42:40;97588.78;;;12.92;50.52
50774;BME280;36745;48.544;8.918;2023-03-03T12:46:27;97586.88;;;13.45;50.56
50774;BME280;36745;48.544;8.918;2023-03-03T12:53:32;97576.72;;;12.64;48.93
50774;BME280;36745;48.544;8.918;2023-03-03T12:57:54;97578.22;;;12.43;48.90
50774;BME280;36745;48.544;8.918;2023-03-03T13:00:57;97572.44;;;12.50;50.01
50774;BME280;36745;48.544;8.918;2023-03-03T13:04:47;97568.31;;;13.85;50.43
50774;BME280;36745;48.544;8.918;2023-03-03T13:12:02;97570.94;;;14.47;47.50
50774;BME280;36745;48.544;8.918;2023-03-03T13:15:25;97569.34;;;14.19;46.81
50774;BME280;36745;48.544;8.918;2023-03-03T13:19:13;97569.78;;;13.77;46.62
50774;BME280;36745;48.544;8.918;2023-03-03T13:22:45;97566.72;;;13.23;45.80
50774;BME280;36745;48.544;8.918;2023-03-03T13:29:37;97564.78;;;13.54;46.62
50774;BME280;36745;48.544;8.918;2023-03-03T13:36:46;97559.34;;;13.20;47.25
50774;BME280;36745;48.544;8.918;2023-03-03T13:43:48;97560.25;;;12.13;44.64
50774;BME280;36745;48.544;8.918;2023-03-03T13:47:17;97556.50;;;11.03;46.53
50774;BME280;36745;48.544;8.918;2023-03-03T13:50:57;97568.31;;;11.03;47.55
50774;BME280;36745;48.544;8.918;2023-03-03T13:58:39;97564.28;;;10.79;47.14
50774;BME280;36745;48.544;8.918;2023-03-03T14:02:30;97558.41;;;9.99;47.33
50774;BME280;36745;48.544;8.918;2023-03-03T14:06:02;97564.00;;;10.12;47.96
50774;BME280;36745;48.544;8.918;2023-03-03T14:09:37;97559.78;;;10.40;47.77
50774;BME280;36745;48.544;8.918;2023-03-03T14:13:06;97552.34;;;10.24;47.68
50774;BME280;36745;48.544;8.918;2023-03-03T14:16:49;97559.72;;;10.27;47.93
50774;BME280;36745;48.544;8.918;2023-03-03T14:20:49;97550.09;;;10.19;48.08
50774;BME280;36745;48.544;8.918;2023-03-03T14:24:21;97547.47;;;10.12;47.34
50774;BME280;36745;48.544;8.918;2023-03-03T14:31:37;97553.66;;;9.84;47.00
50774;BME280;36745;48.544;8.918;2023-03-03T14:35:00;97551.78;;;9.64;47.77
50774;BME280;36745;48.544;8.918;2023-03-03T14:41:53;97558.09;;;9.45;48.00
50774;BME280;36745;48.544;8.918;2023-03-03T14:45:37;97551.22;;;9.37;47.78
50774;BME280;36745;48.544;8.918;2023-03-03T14:49:03;97555.16;;;9.36;48.08
50774;BME280;36745;48.544;8.918;2023-03-03T14:52:27;97549.81;;;9.29;48.24
50774;BME280;36745;48.544;8.918;2023-03-03T14:55:49;97557.75;;;9.43;47.96
50774;BME280;36745;48.544;8.918;2023-03-03T14:59:15;97560.81;;;9.29;47.86
50774;BME280;36745;48.544;8.918;2023-03-03T15:02:40;97552.38;;;9.20;48.19
50774;BME280;36745;48.544;8.918;2023-03-03T15:06:01;97555.31;;;9.29;48.26
50774;BME280;36745;48.544;8.918;2023-03-03T15:09:26;97546.72;;;9.27;48.33
50774;BME280;36745;48.544;8.918;2023-03-03T15:12:46;97548.34;;;9.24;48.37
50774;BME280;36745;48.544;8.918;2023-03-03T15:16:19;97560.97;;;9.22;48.76
50774;BME280;36745;48.544;8.918;2023-03-03T15:23:50;97549.69;;;8.97;48.37
50774;BME280;36745;48.544;8.918;2023-03-03T15:27:28;97550.63;;;9.10;48.76
50774;BME280;36745;48.544;8.918;2023-03-03T15:41:47;97554.28;;;8.83;48.83
50774;BME280;36745;48.544;8.918;2023-03-03T15:45:23;97557.81;;;8.84;49.14
50774;BME280;36745;48.544;8.918;2023-03-03T15:49:15;97560.84;;;8.90;49.41
50774;BME280;36745;48.544;8.918;2023-03-03T16:03:29;97574.34;;;8.61;49.06
50774;BME280;36745;48.544;8.918;2023-03-03T16:07:06;97576.09;;;8.51;48.95
50774;BME280;36745;48.544;8.918;2023-03-03T16:29:39;97584.91;;;8.16;50.56
50774;BME280;36745;48.544;8.918;2023-03-03T16:40:32;97594.09;;;7.82;50.92
50774;BME280;36745;48.544;8.918;2023-03-03T16:44:11;97608.28;;;7.77;51.07
50774;BME280;36745;48.544;8.918;2023-03-03T16:54:59;97616.53;;;7.47;51.61
50774;BME280;36745;48.544;8.918;2023-03-03T17:02:50;97627.25;;;7.04;52.01
50774;BME280;36745;48.544;8.918;2023-03-03T17:10:25;97619.84;;;6.67;52.48
50774;BME280;36745;48.544;8.918;2023-03-03T17:18:11;97638.97;;;6.29;53.25
50774;BME280;36745;48.544;8.918;2023-03-03T17:21:36;97641.00;;;6.18;53.60
50774;BME280;36745;48.544;8.918;2023-03-03T17:25:20;97644.66;;;6.01;54.15
50774;BME280;36745;48.544;8.918;2023-03-03T17:28:48;97642.81;;;5.80;54.70
50774;BME280;36745;48.544;8.918;2023-03-03T17:32:20;97657.00;;;5.65;54.82
50774;BME280;36745;48.544;8.918;2023-03-03T17:43:47;97665.38;;;5.26;55.72
50774;BME280;36745;48.544;8.918;2023-03-03T17:47:41;97678.69;;;5.13;56.14
50774;BME280;36745;48.544;8.918;2023-03-03T17:51:35;97685.75;;;5.00;56.74
50774;BME280;36745;48.544;8.918;2023-03-03T17:59:20;97699.09;;;4.70;57.40
50774;BME280;36745;48.544;8.918;2023-03-03T18:03:01;97698.31;;;4.51;57.52
50774;BME280;36745;48.544;8.918;2023-03-03T18:06:37;97695.97;;;4.36;58.20
50774;BME280;36745;48.544;8.918;2023-03-03T18:21:21;97715.03;;;3.90;58.61
50774;BME280;36745;48.544;8.918;2023-03-03T18:28:15;97724.72;;;3.66;59.54
50774;BME280;36745;48.544;8.918;2023-03-03T18:38:47;97727.72;;;3.43;61.04
50774;BME280;36745;48.544;8.918;2023-03-03T18:49:09;97738.53;;;3.18;61.51
50774;BME280;36745;48.544;8.918;2023-03-03T18:52:33;97743.56;;;3.16;61.51
50774;BME280;36745;48.544;8.918;2023-03-03T18:56:00;97742.34;;;3.07;61.57
50774;BME280;36745;48.544;8.918;2023-03-03T19:02:58;97751.59;;;2.91;61.90
50774;BME280;36745;48.544;8.918;2023-03-03T19:10:05;97746.03;;;2.77;62.50
50774;BME280;36745;48.544;8.918;2023-03-03T19:13:40;97753.41;;;2.73;62.76
50774;BME280;36745;48.544;8.918;2023-03-03T19:20:37;97757.53;;;2.53;63.66
50774;BME280;36745;48.544;8.918;2023-03-03T19:24:17;97758.22;;;2.43;63.13
50774;BME280;36745;48.544;8.918;2023-03-03T19:43:05;97767.72;;;2.19;64.79
50774;BME280;36745;48.544;8.918;2023-03-03T19:50:31;97771.22;;;2.20;65.15
50774;BME280;36745;48.544;8.918;2023-03-03T19:57:40;97781.94;;;2.05;66.66
50774;BME280;36745;48.544;8.918;2023-03-03T20:01:25;97781.34;;;2.23;66.50
50774;BME280;36745;48.544;8.918;2023-03-03T20:08:26;97772.72;;;2.14;66.80
50774;BME280;36745;48.544;8.918;2023-03-03T20:22:45;97791.88;;;1.87;66.31
50774;BME280;36745;48.544;8.918;2023-03-03T20:33:23;97791.97;;;1.98;67.71
50774;BME280;36745;48.544;8.918;2023-03-03T20:40:20;97798.19;;;1.98;67.46
50774;BME280;36745;48.544;8.918;2023-03-03T20:47:30;97806.75;;;2.00;68.38
50774;BME280;36745;48.544;8.918;2023-03-03T20:51:24;97814.66;;;2.13;68.03
50774;BME280;36745;48.544;8.918;2023-03-03T20:55:54;97810.78;;;2.14;68.54
50774;BME280;36745;48.544;8.918;2023-03-03T21:06:04;97810.97;;;1.94;68.84
50774;BME280;36745;48.544;8.918;2023-03-03T21:09:34;97805.53;;;1.94;69.33
50774;BME280;36745;48.544;8.918;2023-03-03T21:12:55;97809.00;;;1.91;69.10
50774;BME280;36745;48.544;8.918;2023-03-03T21:16:28;97806.13;;;1.77;69.53
50774;BME280;36745;48.544;8.918;2023-03-03T21:19:50;97803.19;;;1.59;69.89
50774;BME280;36745;48.544;8.918;2023-03-03T21:23:10;97803.88;;;1.53;69.90
50774;BME280;36745;48.544;8.918;2023-03-03T21:34:28;97802.75;;;1.57;69.95
50774;BME280;36745;48.544;8.918;2023-03-03T21:37:56;97808.22;;;1.31;70.63
50774;BME280;36745;48.544;8.918;2023-03-03T21:41:16;97801.16;;;1.23;70.88
50774;BME280;36745;48.544;8.918;2023-03-03T21:44:47;97814.31;;;1.21;70.89
50774;BME280;36745;48.544;8.918;2023-03-03T21:48:10;97825.13;;;1.17;70.71
50774;BME280;36745;48.544;8.918;2023-03-03T21:51:29;97825.00;;;1.10;71.00
50774;BME280;36745;48.544;8.918;2023-03-03T21:54:50;97816.44;;;1.08;70.58
50774;BME280;36745;48.544;8.918;2023-03-03T21:58:10;97813.94;;;0.96;70.96
50774;BME280;36745;48.544;8.918;2023-03-03T22:01:30;97822.75;;;0.90;71.45
50774;BME280;36745;48.544;8.918;2023-03-03T22:04:49;97819.63;;;0.88;71.26
50774;BME280;36745;48.544;8.918;2023-03-03T22:08:09;97815.34;;;0.87;71.39
50774;BME280;36745;48.544;8.918;2023-03-03T22:11:29;97818.47;;;0.89;71.54
50774;BME280;36745;48.544;8.918;2023-03-03T22:14:49;97821.06;;;0.81;71.31
50774;BME280;36745;48.544;8.918;2023-03-03T22:18:09;97829.16;;;0.78;71.89
50774;BME280;36745;48.544;8.918;2023-03-03T22:21:29;97829.16;;;0.78;72.06
50774;BME280;36745;48.544;8.918;2023-03-03T22:24:49;97831.56;;;0.83;71.50
50774;BME280;36745;48.544;8.918;2023-03-03T22:28:09;97831.03;;;0.74;72.02
50774;BME280;36745;48.544;8.918;2023-03-03T22:31:29;97828.34;;;0.74;71.71
50774;BME280;36745;48.544;8.918;2023-03-03T22:34:49;97834.06;;;0.69;71.94
50774;BME280;36745;48.544;8.918;2023-03-03T22:38:08;97832.00;;;0.62;72.20
50774;BME280;36745;48.544;8.918;2023-03-03T22:41:28;97827.97;;;0.53;72.14
50774;BME280;36745;48.544;8.918;2023-03-03T22:44:51;97847.28;;;0.48;72.10
50774;BME280;36745;48.544;8.918;2023-03-03T22:48:14;97834.06;;;0.46;71.77
50774;BME280;36745;48.544;8.918;2023-03-03T22:51:34;97833.56;;;0.40;72.32
50774;BME280;36745;48.544;8.918;2023-03-03T22:54:54;97833.53;;;0.37;72.41
50774;BME280;36745;48.544;8.918;2023-03-03T22:58:14;97839.09;;;0.25;72.28
50774;BME280;36745;48.544;8.918;2023-03-03T23:01:34;97849.16;;;0.24;72.39
50774;BME280;36745;48.544;8.918;2023-03-03T23:04:54;97836.75;;;0.23;72.24
50774;BME280;36745;48.544;8.918;2023-03-03T23:08:19;97843.50;;;0.10;72.75
50774;BME280;36745;48.544;8.918;2023-03-03T23:11:39;97843.91;;;0.12;72.74
50774;BME280;36745;48.544;8.918;2023-03-03T23:14:59;97844.53;;;0.06;72.18
50774;BME280;36745;48.544;8.918;2023-03-03T23:18:20;97845.34;;;-0.13;73.07
50774;BME280;36745;48.544;8.918;2023-03-03T23:21:40;97840.00;;;-0.10;73.32
50774;BME280;36745;48.544;8.918;2023-03-03T23:24:59;97839.22;;;-0.29;74.41
50774;BME280;36745;48.544;8.918;2023-03-03T23:28:19;97842.88;;;-0.22;74.46
50774;BME280;36745;48.544;8.918;2023-03-03T23:31:39;97837.47;;;-0.22;73.61
50774;BME280;36745;48.544;8.918;2023-03-03T23:34:59;97850.78;;;-0.32;74.02
50774;BME280;36745;48.544;8.918;2023-03-03T23:38:19;97839.34;;;-0.42;74.12
50774;BME280;36745;48.544;8.918;2023-03-03T23:41:39;97846.63;;;-0.46;74.17
50774;BME280;36745;48.544;8.918;2023-03-03T23:44:58;97848.75;;;-0.55;74.00
50774;BME280;36745;48.544;8.918;2023-03-03T23:48:18;97854.53;;;-0.56;73.82
50774;BME280;36745;48.544;8.918;2023-03-03T23:51:39;97853.56;;;-0.64;74.36
50774;BME280;36745;48.544;8.918;2023-03-03T23:55:00;97849.72;;;-0.63;74.64
50774;BME280;36745;48.544;8.918;2023-03-03T23:58:19;97852.72;;;-0.68;75.08
